首页
METAR-TAF:

METAR-TAF

机场 :

Fort McPherson, 西北特區, 加拿大

纬度: 67-24N, 经度: 134-51W, 海拔: 43米

当前天气观测

该预报发布于13小时和44分钟前的19:00 UTC
风速9节,风向,在西北北转东北之间变化
温度 9°C
湿度 49%
气压 1015 hPa
能見度: 56.3公里
少量云层高于9000英尺

METAR: CZFM 311900Z 35009KT 320V030 35SM FEW090 09/M01 A2997 RMK AC1 AC TR R0.0 AFT14UTC LAST STFD OBS/NXT 011300Z SLP153

时间: 02:44 (08:44 UTC)

预报

该预报发布于17小时和5分钟前的15:39 UTC
预报有效从31日的 16点(UTC)到 31日的 19点(UTC)
风速10节,风向北转西北
能見度: 10公里
天空无云

TAF: CZFM 311539Z 3116/3119 34010KT P6SM SKC RMK NXT FCST WILL BE ISSUED AT 011445Z

超过4000个机场的气象观测和天气预报(METAR&TAF报告)。

可查询的气象台以黄色和红色小点在地图上表示。

将鼠标移到小点上方,可查看气象台名称。

然后点击查看天气观测和预报。

如需切换地图:点击带黑十字的绿色按钮放大地图;点击带横线的绿色按钮缩小地图;或者点击绿色箭头查看邻近地区的地图。


METAR-TAF: